sensor_id;sensor_type;location;lat;lon;timestamp;pressure;altitude;pressure_sealevel;temperature;humidity
77450;BME280;66536;53.150;18.172;2023-04-25T00:01:24;100018.39;;;11.80;80.19
77450;BME280;66536;53.150;18.172;2023-04-25T00:03:50;100016.73;;;11.77;80.35
77450;BME280;66536;53.150;18.172;2023-04-25T00:06:20;100023.08;;;11.76;80.34
77450;BME280;66536;53.150;18.172;2023-04-25T00:08:47;100019.55;;;11.74;80.36
77450;BME280;66536;53.150;18.172;2023-04-25T00:11:14;100016.21;;;11.72;80.36
77450;BME280;66536;53.150;18.172;2023-04-25T00:13:41;100013.94;;;11.70;80.81
77450;BME280;66536;53.150;18.172;2023-04-25T00:16:07;100014.44;;;11.66;80.95
77450;BME280;66536;53.150;18.172;2023-04-25T00:18:52;100012.35;;;11.64;80.79
77450;BME280;66536;53.150;18.172;2023-04-25T00:21:43;100012.95;;;11.63;81.10
77450;BME280;66536;53.150;18.172;2023-04-25T00:24:36;100011.15;;;11.59;81.36
77450;BME280;66536;53.150;18.172;2023-04-25T00:27:03;100015.27;;;11.57;81.21
77450;BME280;66536;53.150;18.172;2023-04-25T00:29:34;100012.02;;;11.54;81.71
77450;BME280;66536;53.150;18.172;2023-04-25T00:32:01;100009.48;;;11.49;81.75
77450;BME280;66536;53.150;18.172;2023-04-25T00:37:32;100015.60;;;11.39;81.83
77450;BME280;66536;53.150;18.172;2023-04-25T00:40:02;100015.97;;;11.35;81.94
77450;BME280;66536;53.150;18.172;2023-04-25T00:42:31;100012.94;;;11.30;81.97
77450;BME280;66536;53.150;18.172;2023-04-25T00:45:17;100019.20;;;11.28;81.55
77450;BME280;66536;53.150;18.172;2023-04-25T00:47:57;100018.57;;;11.25;81.41
77450;BME280;66536;53.150;18.172;2023-04-25T00:50:24;100019.70;;;11.22;81.21
77450;BME280;66536;53.150;18.172;2023-04-25T00:52:52;100025.41;;;11.20;80.87
77450;BME280;66536;53.150;18.172;2023-04-25T00:55:19;100025.93;;;11.16;80.45
77450;BME280;66536;53.150;18.172;2023-04-25T00:57:54;100031.00;;;11.11;79.84
77450;BME280;66536;53.150;18.172;2023-04-25T01:00:22;100031.38;;;11.07;79.35
77450;BME280;66536;53.150;18.172;2023-04-25T01:02:48;100029.63;;;11.03;79.33
77450;BME280;66536;53.150;18.172;2023-04-25T01:05:24;100026.05;;;10.98;79.25
77450;BME280;66536;53.150;18.172;2023-04-25T01:07:50;100032.80;;;10.94;79.38
77450;BME280;66536;53.150;18.172;2023-04-25T01:10:16;100026.12;;;10.92;79.36
77450;BME280;66536;53.150;18.172;2023-04-25T01:12:42;100028.96;;;10.88;78.96
77450;BME280;66536;53.150;18.172;2023-04-25T01:15:08;100035.14;;;10.82;78.76
77450;BME280;66536;53.150;18.172;2023-04-25T01:17:34;100036.49;;;10.77;78.70
77450;BME280;66536;53.150;18.172;2023-04-25T01:20:03;100034.05;;;10.73;78.64
77450;BME280;66536;53.150;18.172;2023-04-25T01:22:34;100033.42;;;10.70;78.74
77450;BME280;66536;53.150;18.172;2023-04-25T01:25:01;100034.19;;;10.67;78.70
77450;BME280;66536;53.150;18.172;2023-04-25T01:27:29;100037.06;;;10.63;78.36
77450;BME280;66536;53.150;18.172;2023-04-25T01:29:56;100032.92;;;10.59;78.22
77450;BME280;66536;53.150;18.172;2023-04-25T01:32:23;100035.36;;;10.53;78.46
77450;BME280;66536;53.150;18.172;2023-04-25T01:34:51;100034.39;;;10.47;78.40
77450;BME280;66536;53.150;18.172;2023-04-25T01:37:19;100033.53;;;10.44;78.35
77450;BME280;66536;53.150;18.172;2023-04-25T01:39:46;100038.29;;;10.40;78.17
77450;BME280;66536;53.150;18.172;2023-04-25T01:42:15;100040.80;;;10.35;78.27
77450;BME280;66536;53.150;18.172;2023-04-25T01:44:46;100044.65;;;10.32;78.08
77450;BME280;66536;53.150;18.172;2023-04-25T01:47:13;100044.52;;;10.27;78.15
77450;BME280;66536;53.150;18.172;2023-04-25T01:49:40;100043.94;;;10.22;78.21
77450;BME280;66536;53.150;18.172;2023-04-25T01:52:07;100046.65;;;10.19;78.12
77450;BME280;66536;53.150;18.172;2023-04-25T01:54:34;100045.87;;;10.15;78.26
77450;BME280;66536;53.150;18.172;2023-04-25T01:57:00;100045.98;;;10.12;78.05
77450;BME280;66536;53.150;18.172;2023-04-25T01:59:28;100048.95;;;10.07;78.22
77450;BME280;66536;53.150;18.172;2023-04-25T02:02:08;100054.25;;;10.03;77.98
77450;BME280;66536;53.150;18.172;2023-04-25T02:04:35;100055.94;;;9.98;77.95
77450;BME280;66536;53.150;18.172;2023-04-25T02:07:04;100058.11;;;9.93;77.78
77450;BME280;66536;53.150;18.172;2023-04-25T02:09:39;100058.09;;;9.88;77.58
77450;BME280;66536;53.150;18.172;2023-04-25T02:12:09;100060.61;;;9.84;77.29
77450;BME280;66536;53.150;18.172;2023-04-25T02:14:55;100056.53;;;9.81;77.82
77450;BME280;66536;53.150;18.172;2023-04-25T02:17:33;100057.70;;;9.79;77.86
77450;BME280;66536;53.150;18.172;2023-04-25T02:19:59;100062.55;;;9.76;77.82
77450;BME280;66536;53.150;18.172;2023-04-25T02:22:25;100073.86;;;9.74;77.76
77450;BME280;66536;53.150;18.172;2023-04-25T02:24:56;100072.10;;;9.72;77.98
77450;BME280;66536;53.150;18.172;2023-04-25T02:27:23;100071.50;;;9.69;77.89
77450;BME280;66536;53.150;18.172;2023-04-25T02:29:49;100072.39;;;9.66;78.05
77450;BME280;66536;53.150;18.172;2023-04-25T02:32:15;100069.08;;;9.62;78.26
77450;BME280;66536;53.150;18.172;2023-04-25T02:34:41;100067.49;;;9.61;78.44
77450;BME280;66536;53.150;18.172;2023-04-25T02:37:08;100069.67;;;9.58;78.55
77450;BME280;66536;53.150;18.172;2023-04-25T02:39:34;100072.57;;;9.55;78.66
77450;BME280;66536;53.150;18.172;2023-04-25T02:42:00;100075.48;;;9.52;78.61
77450;BME280;66536;53.150;18.172;2023-04-25T02:44:32;100074.02;;;9.48;78.85
77450;BME280;66536;53.150;18.172;2023-04-25T02:46:59;100074.57;;;9.44;79.16
77450;BME280;66536;53.150;18.172;2023-04-25T02:49:25;100073.30;;;9.41;79.13
77450;BME280;66536;53.150;18.172;2023-04-25T02:51:51;100074.70;;;9.40;79.50
77450;BME280;66536;53.150;18.172;2023-04-25T02:54:17;100075.80;;;9.37;79.46
77450;BME280;66536;53.150;18.172;2023-04-25T02:56:46;100072.77;;;9.33;79.85
77450;BME280;66536;53.150;18.172;2023-04-25T02:59:16;100072.34;;;9.28;79.56
77450;BME280;66536;53.150;18.172;2023-04-25T03:01:42;100075.64;;;9.27;79.62
77450;BME280;66536;53.150;18.172;2023-04-25T03:04:09;100074.83;;;9.25;79.48
77450;BME280;66536;53.150;18.172;2023-04-25T03:06:35;100078.88;;;9.20;79.06
77450;BME280;66536;53.150;18.172;2023-04-25T03:09:01;100075.71;;;9.14;78.82
77450;BME280;66536;53.150;18.172;2023-04-25T03:11:28;100075.33;;;9.08;78.72
77450;BME280;66536;53.150;18.172;2023-04-25T03:13:54;100081.77;;;9.02;78.79
77450;BME280;66536;53.150;18.172;2023-04-25T03:16:21;100082.59;;;8.99;79.13
77450;BME280;66536;53.150;18.172;2023-04-25T03:18:49;100083.28;;;8.96;79.04
77450;BME280;66536;53.150;18.172;2023-04-25T03:21:17;100082.52;;;8.96;78.85
77450;BME280;66536;53.150;18.172;2023-04-25T03:23:43;100083.23;;;8.95;79.03
77450;BME280;66536;53.150;18.172;2023-04-25T03:26:09;100083.46;;;8.93;78.64
77450;BME280;66536;53.150;18.172;2023-04-25T03:28:36;100090.14;;;8.86;78.50
77450;BME280;66536;53.150;18.172;2023-04-25T03:31:03;100089.27;;;8.79;78.44
77450;BME280;66536;53.150;18.172;2023-04-25T03:33:29;100086.02;;;8.73;78.36
77450;BME280;66536;53.150;18.172;2023-04-25T03:35:56;100084.11;;;8.67;78.59
77450;BME280;66536;53.150;18.172;2023-04-25T03:38:27;100085.25;;;8.64;78.82
77450;BME280;66536;53.150;18.172;2023-04-25T03:41:29;100090.86;;;8.60;78.68
77450;BME280;66536;53.150;18.172;2023-04-25T03:44:00;100096.20;;;8.58;78.93
77450;BME280;66536;53.150;18.172;2023-04-25T03:46:26;100096.84;;;8.57;78.78
77450;BME280;66536;53.150;18.172;2023-04-25T03:48:52;100100.75;;;8.54;78.73
77450;BME280;66536;53.150;18.172;2023-04-25T03:51:21;100102.15;;;8.51;78.61
77450;BME280;66536;53.150;18.172;2023-04-25T03:53:49;100104.73;;;8.48;78.67
77450;BME280;66536;53.150;18.172;2023-04-25T03:56:35;100110.73;;;8.47;78.80
77450;BME280;66536;53.150;18.172;2023-04-25T03:59:07;100116.29;;;8.46;78.46
77450;BME280;66536;53.150;18.172;2023-04-25T04:01:35;100123.00;;;8.46;78.58
77450;BME280;66536;53.150;18.172;2023-04-25T04:04:01;100118.80;;;8.45;78.75
77450;BME280;66536;53.150;18.172;2023-04-25T04:06:28;100128.39;;;8.46;78.43
77450;BME280;66536;53.150;18.172;2023-04-25T04:09:03;100129.22;;;8.46;78.29
77450;BME280;66536;53.150;18.172;2023-04-25T04:11:32;100133.51;;;8.48;78.23
77450;BME280;66536;53.150;18.172;2023-04-25T04:14:22;100132.79;;;8.48;78.19
77450;BME280;66536;53.150;18.172;2023-04-25T04:16:51;100130.64;;;8.49;77.99
77450;BME280;66536;53.150;18.172;2023-04-25T04:19:17;100140.16;;;8.48;77.62
77450;BME280;66536;53.150;18.172;2023-04-25T04:21:52;100141.55;;;8.49;77.98
77450;BME280;66536;53.150;18.172;2023-04-25T04:24:19;100145.45;;;8.55;77.74
77450;BME280;66536;53.150;18.172;2023-04-25T04:26:51;100144.80;;;8.61;77.65
77450;BME280;66536;53.150;18.172;2023-04-25T04:29:27;100152.17;;;8.67;77.17
77450;BME280;66536;53.150;18.172;2023-04-25T04:32:07;100155.26;;;8.71;77.14
77450;BME280;66536;53.150;18.172;2023-04-25T04:34:35;100152.46;;;8.74;76.61
77450;BME280;66536;53.150;18.172;2023-04-25T04:37:01;100155.66;;;8.76;76.44
77450;BME280;66536;53.150;18.172;2023-04-25T04:39:29;100156.84;;;8.78;76.35
77450;BME280;66536;53.150;18.172;2023-04-25T04:42:05;100158.30;;;8.80;76.03
77450;BME280;66536;53.150;18.172;2023-04-25T04:44:40;100158.83;;;8.80;75.90
77450;BME280;66536;53.150;18.172;2023-04-25T04:47:24;100159.30;;;8.80;75.79
77450;BME280;66536;53.150;18.172;2023-04-25T04:50:11;100159.87;;;8.84;75.46
77450;BME280;66536;53.150;18.172;2023-04-25T04:52:57;100157.73;;;8.88;75.58
77450;BME280;66536;53.150;18.172;2023-04-25T04:55:40;100153.46;;;8.93;75.36
77450;BME280;66536;53.150;18.172;2023-04-25T04:58:21;100160.59;;;8.96;75.04
77450;BME280;66536;53.150;18.172;2023-04-25T05:00:57;100160.05;;;8.94;74.84
77450;BME280;66536;53.150;18.172;2023-04-25T05:03:34;100161.89;;;8.90;75.05
77450;BME280;66536;53.150;18.172;2023-04-25T05:06:16;100166.36;;;8.87;74.64
77450;BME280;66536;53.150;18.172;2023-04-25T05:09:24;100166.07;;;8.81;74.89
77450;BME280;66536;53.150;18.172;2023-04-25T05:12:05;100170.73;;;8.77;74.85
77450;BME280;66536;53.150;18.172;2023-04-25T05:15:02;100169.18;;;8.73;74.71
77450;BME280;66536;53.150;18.172;2023-04-25T05:21:17;100164.45;;;8.64;74.57
77450;BME280;66536;53.150;18.172;2023-04-25T05:24:13;100161.33;;;8.63;74.53
77450;BME280;66536;53.150;18.172;2023-04-25T05:26:50;100169.73;;;8.64;74.23
77450;BME280;66536;53.150;18.172;2023-04-25T05:29:49;100168.23;;;8.70;74.48
77450;BME280;66536;53.150;18.172;2023-04-25T05:32:26;100170.35;;;8.77;73.93
77450;BME280;66536;53.150;18.172;2023-04-25T05:35:24;100168.94;;;8.79;73.53
77450;BME280;66536;53.150;18.172;2023-04-25T05:38:18;100182.04;;;8.89;73.74
77450;BME280;66536;53.150;18.172;2023-04-25T05:40:55;100179.74;;;9.07;73.18
77450;BME280;66536;53.150;18.172;2023-04-25T05:43:33;100177.04;;;9.19;72.86
77450;BME280;66536;53.150;18.172;2023-04-25T05:46:10;100179.41;;;9.33;72.73
77450;BME280;66536;53.150;18.172;2023-04-25T05:48:51;100182.84;;;9.46;71.89
77450;BME280;66536;53.150;18.172;2023-04-25T05:51:42;100180.63;;;9.59;71.34
77450;BME280;66536;53.150;18.172;2023-04-25T05:54:31;100185.05;;;9.69;71.08
77450;BME280;66536;53.150;18.172;2023-04-25T05:56:57;100187.04;;;9.81;70.86
77450;BME280;66536;53.150;18.172;2023-04-25T05:59:23;100188.46;;;9.94;70.73
77450;BME280;66536;53.150;18.172;2023-04-25T06:02:08;100184.85;;;10.06;70.05
77450;BME280;66536;53.150;18.172;2023-04-25T06:04:37;100186.02;;;10.05;69.79
77450;BME280;66536;53.150;18.172;2023-04-25T06:07:03;100188.84;;;10.09;69.27
77450;BME280;66536;53.150;18.172;2023-04-25T06:09:29;100186.75;;;10.13;69.20
77450;BME280;66536;53.150;18.172;2023-04-25T06:11:57;100188.74;;;10.25;69.02
77450;BME280;66536;53.150;18.172;2023-04-25T06:14:25;100189.48;;;10.35;68.41
77450;BME280;66536;53.150;18.172;2023-04-25T06:16:51;100184.25;;;10.45;68.04
77450;BME280;66536;53.150;18.172;2023-04-25T06:19:17;100178.86;;;10.55;67.69
77450;BME280;66536;53.150;18.172;2023-04-25T06:22:03;100187.88;;;10.55;67.68
77450;BME280;66536;53.150;18.172;2023-04-25T06:24:32;100189.21;;;10.56;68.37
77450;BME280;66536;53.150;18.172;2023-04-25T06:26:59;100185.76;;;10.61;68.67
77450;BME280;66536;53.150;18.172;2023-04-25T06:29:27;100186.85;;;10.63;68.26
77450;BME280;66536;53.150;18.172;2023-04-25T06:31:53;100187.42;;;10.61;68.15
77450;BME280;66536;53.150;18.172;2023-04-25T06:34:19;100185.20;;;10.58;67.45
77450;BME280;66536;53.150;18.172;2023-04-25T06:36:46;100188.11;;;10.54;67.82
77450;BME280;66536;53.150;18.172;2023-04-25T06:39:17;100186.29;;;10.50;67.07
77450;BME280;66536;53.150;18.172;2023-04-25T06:41:45;100193.75;;;10.45;67.62
77450;BME280;66536;53.150;18.172;2023-04-25T06:44:23;100189.86;;;10.41;67.78
77450;BME280;66536;53.150;18.172;2023-04-25T06:46:55;100185.85;;;10.47;67.65
77450;BME280;66536;53.150;18.172;2023-04-25T06:49:38;100186.16;;;10.53;67.69
77450;BME280;66536;53.150;18.172;2023-04-25T06:52:04;100188.36;;;10.54;67.37
77450;BME280;66536;53.150;18.172;2023-04-25T06:54:34;100179.23;;;10.53;66.43
77450;BME280;66536;53.150;18.172;2023-04-25T06:57:08;100180.75;;;10.55;66.65
77450;BME280;66536;53.150;18.172;2023-04-25T06:59:34;100185.35;;;10.59;66.62
77450;BME280;66536;53.150;18.172;2023-04-25T07:02:00;100186.44;;;10.70;66.46
77450;BME280;66536;53.150;18.172;2023-04-25T07:04:26;100186.54;;;10.78;66.21
77450;BME280;66536;53.150;18.172;2023-04-25T07:06:55;100184.20;;;10.80;65.90
77450;BME280;66536;53.150;18.172;2023-04-25T07:09:26;100182.84;;;10.95;65.53
77450;BME280;66536;53.150;18.172;2023-04-25T07:11:55;100181.73;;;11.15;64.95
77450;BME280;66536;53.150;18.172;2023-04-25T07:14:22;100181.25;;;11.23;63.93
77450;BME280;66536;53.150;18.172;2023-04-25T07:16:49;100176.82;;;11.33;64.75
77450;BME280;66536;53.150;18.172;2023-04-25T07:19:17;100178.25;;;11.49;64.17
77450;BME280;66536;53.150;18.172;2023-04-25T07:21:43;100190.27;;;11.68;63.47
77450;BME280;66536;53.150;18.172;2023-04-25T07:24:10;100191.55;;;11.85;62.43
77450;BME280;66536;53.150;18.172;2023-04-25T07:26:39;100191.98;;;12.05;62.91
77450;BME280;66536;53.150;18.172;2023-04-25T07:29:15;100193.92;;;12.19;61.76
77450;BME280;66536;53.150;18.172;2023-04-25T07:31:41;100191.15;;;12.35;61.26
77450;BME280;66536;53.150;18.172;2023-04-25T07:34:07;100191.36;;;12.50;60.11
77450;BME280;66536;53.150;18.172;2023-04-25T07:36:36;100193.31;;;12.50;59.73
77450;BME280;66536;53.150;18.172;2023-04-25T07:39:04;100187.87;;;12.47;58.84
77450;BME280;66536;53.150;18.172;2023-04-25T07:41:31;100194.86;;;12.49;58.80
77450;BME280;66536;53.150;18.172;2023-04-25T07:43:57;100197.77;;;12.49;59.03
77450;BME280;66536;53.150;18.172;2023-04-25T07:46:24;100191.74;;;12.57;59.03
77450;BME280;66536;53.150;18.172;2023-04-25T07:48:53;100189.71;;;12.57;58.02
77450;BME280;66536;53.150;18.172;2023-04-25T07:51:24;100194.66;;;12.55;58.96
77450;BME280;66536;53.150;18.172;2023-04-25T07:53:51;100197.27;;;12.60;59.17
77450;BME280;66536;53.150;18.172;2023-04-25T07:56:18;100197.33;;;12.66;57.96
77450;BME280;66536;53.150;18.172;2023-04-25T07:58:45;100194.83;;;12.77;56.64
77450;BME280;66536;53.150;18.172;2023-04-25T08:01:16;100198.27;;;13.05;56.34
77450;BME280;66536;53.150;18.172;2023-04-25T08:03:47;100199.90;;;13.28;56.33
77450;BME280;66536;53.150;18.172;2023-04-25T08:06:24;100192.40;;;13.46;55.79
77450;BME280;66536;53.150;18.172;2023-04-25T08:09:05;100194.36;;;13.52;54.41
77450;BME280;66536;53.150;18.172;2023-04-25T08:11:36;100196.88;;;13.64;54.30
77450;BME280;66536;53.150;18.172;2023-04-25T08:14:02;100195.36;;;13.73;54.53
77450;BME280;66536;53.150;18.172;2023-04-25T08:16:29;100197.34;;;13.84;55.22
77450;BME280;66536;53.150;18.172;2023-04-25T08:18:57;100203.48;;;13.98;54.75
77450;BME280;66536;53.150;18.172;2023-04-25T08:21:23;100205.20;;;14.03;54.77
77450;BME280;66536;53.150;18.172;2023-04-25T08:23:49;100206.98;;;14.07;54.42
77450;BME280;66536;53.150;18.172;2023-04-25T08:26:24;100208.41;;;13.98;53.96
77450;BME280;66536;53.150;18.172;2023-04-25T08:28:51;100210.89;;;13.92;54.22
77450;BME280;66536;53.150;18.172;2023-04-25T08:31:17;100208.08;;;13.85;53.66
77450;BME280;66536;53.150;18.172;2023-04-25T08:33:50;100210.04;;;13.80;54.02
77450;BME280;66536;53.150;18.172;2023-04-25T08:36:25;100209.66;;;13.68;53.83
77450;BME280;66536;53.150;18.172;2023-04-25T08:38:51;100217.35;;;13.65;54.24
77450;BME280;66536;53.150;18.172;2023-04-25T08:41:19;100216.30;;;13.71;54.03
77450;BME280;66536;53.150;18.172;2023-04-25T08:43:48;100220.30;;;13.75;53.74
77450;BME280;66536;53.150;18.172;2023-04-25T08:46:17;100213.25;;;13.76;53.72
77450;BME280;66536;53.150;18.172;2023-04-25T08:49:00;100215.80;;;13.83;53.79
77450;BME280;66536;53.150;18.172;2023-04-25T08:51:27;100222.09;;;13.94;53.85
77450;BME280;66536;53.150;18.172;2023-04-25T08:53:55;100223.40;;;14.02;53.64
77450;BME280;66536;53.150;18.172;2023-04-25T08:56:22;100215.95;;;14.05;52.83
77450;BME280;66536;53.150;18.172;2023-04-25T08:58:49;100216.38;;;14.13;52.61
77450;BME280;66536;53.150;18.172;2023-04-25T09:01:17;100221.83;;;14.16;52.58
77450;BME280;66536;53.150;18.172;2023-04-25T09:03:48;100216.56;;;14.11;52.80
77450;BME280;66536;53.150;18.172;2023-04-25T09:06:16;100220.36;;;14.15;52.49
77450;BME280;66536;53.150;18.172;2023-04-25T09:08:49;100223.22;;;14.23;52.28
77450;BME280;66536;53.150;18.172;2023-04-25T09:11:18;100223.44;;;14.37;52.75
77450;BME280;66536;53.150;18.172;2023-04-25T09:13:46;100221.30;;;14.34;53.02
77450;BME280;66536;53.150;18.172;2023-04-25T09:16:24;100223.13;;;14.05;53.16
77450;BME280;66536;53.150;18.172;2023-04-25T09:19:04;100228.50;;;13.63;52.70
77450;BME280;66536;53.150;18.172;2023-04-25T09:21:35;100235.61;;;13.29;54.39
77450;BME280;66536;53.150;18.172;2023-04-25T09:24:03;100241.16;;;13.06;55.27
77450;BME280;66536;53.150;18.172;2023-04-25T09:26:29;100237.27;;;12.89;55.49
77450;BME280;66536;53.150;18.172;2023-04-25T09:29:07;100243.83;;;12.78;56.04
77450;BME280;66536;53.150;18.172;2023-04-25T09:31:53;100247.84;;;12.76;55.86
77450;BME280;66536;53.150;18.172;2023-04-25T09:34:21;100238.83;;;12.83;56.27
77450;BME280;66536;53.150;18.172;2023-04-25T09:37:01;100246.66;;;13.00;55.85
77450;BME280;66536;53.150;18.172;2023-04-25T09:39:38;100246.10;;;13.27;55.54
77450;BME280;66536;53.150;18.172;2023-04-25T09:42:11;100248.34;;;13.55;55.31
77450;BME280;66536;53.150;18.172;2023-04-25T09:44:43;100250.41;;;13.79;54.20
77450;BME280;66536;53.150;18.172;2023-04-25T09:47:13;100247.29;;;13.95;53.76
77450;BME280;66536;53.150;18.172;2023-04-25T09:49:44;100251.02;;;14.11;53.11
77450;BME280;66536;53.150;18.172;2023-04-25T09:52:17;100256.27;;;14.35;53.08
77450;BME280;66536;53.150;18.172;2023-04-25T09:54:58;100258.78;;;14.70;53.27
77450;BME280;66536;53.150;18.172;2023-04-25T09:57:29;100261.39;;;15.07;52.13
77450;BME280;66536;53.150;18.172;2023-04-25T09:59:56;100258.55;;;15.33;50.43
77450;BME280;66536;53.150;18.172;2023-04-25T10:02:25;100262.23;;;15.61;50.72
77450;BME280;66536;53.150;18.172;2023-04-25T10:04:54;100264.30;;;15.94;49.27
77450;BME280;66536;53.150;18.172;2023-04-25T10:07:36;100258.05;;;15.96;47.82
77450;BME280;66536;53.150;18.172;2023-04-25T10:10:44;100258.60;;;15.92;47.07
77450;BME280;66536;53.150;18.172;2023-04-25T10:14:03;100252.46;;;15.80;47.02
77450;BME280;66536;53.150;18.172;2023-04-25T10:16:06;100259.63;;;15.90;46.76
77450;BME280;66536;53.150;18.172;2023-04-25T10:18:32;100262.85;;;16.03;46.16
77450;BME280;66536;53.150;18.172;2023-04-25T10:21:01;100263.34;;;15.98;44.41
77450;BME280;66536;53.150;18.172;2023-04-25T10:23:29;100260.71;;;15.62;44.90
77450;BME280;66536;53.150;18.172;2023-04-25T10:25:56;100268.84;;;15.39;46.30
77450;BME280;66536;53.150;18.172;2023-04-25T10:28:22;100265.48;;;15.15;47.02
77450;BME280;66536;53.150;18.172;2023-04-25T10:30:59;100269.45;;;14.87;47.41
77450;BME280;66536;53.150;18.172;2023-04-25T10:33:42;100269.61;;;14.61;48.07
77450;BME280;66536;53.150;18.172;2023-04-25T10:36:12;100268.73;;;14.49;48.64
77450;BME280;66536;53.150;18.172;2023-04-25T10:38:39;100266.86;;;14.41;48.85
77450;BME280;66536;53.150;18.172;2023-04-25T10:41:09;100272.66;;;14.39;49.07
77450;BME280;66536;53.150;18.172;2023-04-25T10:43:40;100270.47;;;14.41;49.20
77450;BME280;66536;53.150;18.172;2023-04-25T10:46:19;100268.31;;;14.44;48.99
77450;BME280;66536;53.150;18.172;2023-04-25T10:48:50;100271.56;;;14.45;49.36
77450;BME280;66536;53.150;18.172;2023-04-25T10:51:19;100273.63;;;14.49;49.26
77450;BME280;66536;53.150;18.172;2023-04-25T10:53:56;100270.17;;;14.52;49.05
77450;BME280;66536;53.150;18.172;2023-04-25T10:56:25;100273.66;;;14.55;48.86
77450;BME280;66536;53.150;18.172;2023-04-25T10:59:07;100271.38;;;14.56;48.72
77450;BME280;66536;53.150;18.172;2023-04-25T11:01:40;100273.80;;;14.57;48.13
77450;BME280;66536;53.150;18.172;2023-04-25T11:04:29;100277.66;;;14.67;48.53
77450;BME280;66536;53.150;18.172;2023-04-25T11:07:23;100271.84;;;14.91;48.12
77450;BME280;66536;53.150;18.172;2023-04-25T11:09:55;100268.95;;;15.08;47.81
77450;BME280;66536;53.150;18.172;2023-04-25T11:12:26;100261.55;;;15.19;47.50
77450;BME280;66536;53.150;18.172;2023-04-25T11:15:01;100274.60;;;15.26;46.86
77450;BME280;66536;53.150;18.172;2023-04-25T11:17:28;100275.61;;;15.38;46.32
77450;BME280;66536;53.150;18.172;2023-04-25T11:19:55;100276.59;;;15.55;46.27
77450;BME280;66536;53.150;18.172;2023-04-25T11:22:22;100273.06;;;15.66;46.04
77450;BME280;66536;53.150;18.172;2023-04-25T11:24:54;100275.73;;;15.59;46.54
77450;BME280;66536;53.150;18.172;2023-04-25T11:27:30;100279.27;;;15.52;46.57
77450;BME280;66536;53.150;18.172;2023-04-25T11:30:14;100280.24;;;15.46;46.64
77450;BME280;66536;53.150;18.172;2023-04-25T11:32:41;100277.93;;;15.34;46.68
77450;BME280;66536;53.150;18.172;2023-04-25T11:35:09;100280.49;;;15.25;46.61
77450;BME280;66536;53.150;18.172;2023-04-25T11:37:36;100277.45;;;15.13;47.25
77450;BME280;66536;53.150;18.172;2023-04-25T11:40:03;100278.59;;;15.03;46.91
77450;BME280;66536;53.150;18.172;2023-04-25T11:42:32;100274.56;;;14.97;47.42
77450;BME280;66536;53.150;18.172;2023-04-25T11:44:59;100281.33;;;15.00;47.54
77450;BME280;66536;53.150;18.172;2023-04-25T11:47:33;100278.34;;;15.08;47.41
77450;BME280;66536;53.150;18.172;2023-04-25T11:50:00;100277.09;;;15.23;47.49
77450;BME280;66536;53.150;18.172;2023-04-25T11:52:38;100280.94;;;15.38;47.24
77450;BME280;66536;53.150;18.172;2023-04-25T11:55:09;100276.64;;;15.52;46.83
77450;BME280;66536;53.150;18.172;2023-04-25T11:57:59;100283.09;;;15.68;46.46
77450;BME280;66536;53.150;18.172;2023-04-25T12:00:26;100290.55;;;15.75;46.13
77450;BME280;66536;53.150;18.172;2023-04-25T12:02:55;100292.62;;;15.77;46.57
77450;BME280;66536;53.150;18.172;2023-04-25T12:05:25;100295.66;;;15.66;46.07
77450;BME280;66536;53.150;18.172;2023-04-25T12:07:53;100290.66;;;15.49;46.19
77450;BME280;66536;53.150;18.172;2023-04-25T12:10:20;100289.46;;;15.30;46.80
77450;BME280;66536;53.150;18.172;2023-04-25T12:12:48;100291.91;;;15.14;47.29
77450;BME280;66536;53.150;18.172;2023-04-25T12:15:18;100298.84;;;15.04;47.75
77450;BME280;66536;53.150;18.172;2023-04-25T12:17:47;100299.07;;;14.92;48.03
77450;BME280;66536;53.150;18.172;2023-04-25T12:20:16;100300.94;;;14.74;47.92
77450;BME280;66536;53.150;18.172;2023-04-25T12:22:45;100302.17;;;14.61;48.08
77450;BME280;66536;53.150;18.172;2023-04-25T12:25:40;100301.23;;;14.48;48.20
77450;BME280;66536;53.150;18.172;2023-04-25T12:28:17;100298.09;;;14.40;48.64
77450;BME280;66536;53.150;18.172;2023-04-25T12:30:54;100302.33;;;14.34;48.80
77450;BME280;66536;53.150;18.172;2023-04-25T12:33:22;100292.66;;;14.38;49.04
77450;BME280;66536;53.150;18.172;2023-04-25T12:35:48;100297.21;;;14.51;48.45
77450;BME280;66536;53.150;18.172;2023-04-25T12:38:25;100294.84;;;14.61;47.64
77450;BME280;66536;53.150;18.172;2023-04-25T12:40:52;100294.03;;;14.72;46.51
77450;BME280;66536;53.150;18.172;2023-04-25T12:43:19;100295.41;;;14.87;45.92
77450;BME280;66536;53.150;18.172;2023-04-25T12:45:49;100297.73;;;15.07;46.03
77450;BME280;66536;53.150;18.172;2023-04-25T12:48:17;100296.98;;;15.36;45.38
77450;BME280;66536;53.150;18.172;2023-04-25T12:50:44;100292.99;;;15.65;44.96
77450;BME280;66536;53.150;18.172;2023-04-25T12:53:10;100297.55;;;15.94;45.05
77450;BME280;66536;53.150;18.172;2023-04-25T12:55:37;100299.39;;;16.20;44.55
77450;BME280;66536;53.150;18.172;2023-04-25T12:58:07;100291.37;;;16.39;44.50
77450;BME280;66536;53.150;18.172;2023-04-25T13:00:34;100285.42;;;16.41;44.46
77450;BME280;66536;53.150;18.172;2023-04-25T13:07:53;100281.33;;;16.28;44.70
77450;BME280;66536;53.150;18.172;2023-04-25T13:10:19;100273.98;;;15.98;45.02
77450;BME280;66536;53.150;18.172;2023-04-25T13:12:45;100274.41;;;15.72;45.30
77450;BME280;66536;53.150;18.172;2023-04-25T13:15:21;100282.70;;;15.57;45.61
77450;BME280;66536;53.150;18.172;2023-04-25T13:17:48;100281.44;;;15.50;45.35